Strona główna
METAR-TAF:

METAR-TAF

Lotnisko :

Melun, Francja

Szerokość geograficzna: 48-37N, Długość geograficzna: 002-41E, wysokość: 95 m

Aktualna obserwacja pogody

Raport powstał 40 minut temu, godzina 02:00 UTC
Wiatr 8 kt od południe
Temperatura 12°C
Wilgotność 88%
Ciśnienie 1016 hPa
Widzialność 10 km lub więcej
Zachmurzenie całkowite na wysokości 2700 ft

METAR: LFPM 240200Z AUTO 19008KT 9999 OVC027 12/10 Q1016

czas: 04:40 (02:40 UTC)


TAF: brakujący

Obserwacja i prognoza pogody dla ponad 4000 lotnisk (raport METAR i TAF).

Dostępne stacje oznaczono żółtymi i czerwonymi punktami na mapie.

Najedź kursorem aby zobaczyć nazwę stacji.

Kliknij aby zobaczyć obserwacje i prognozy pogody.

Aby zmienić mapę: kliknij na zielony przycisk z czarnym krzyżykiem, aby powiększyć; na zielony przycisk z myślnikiem, aby pomniejszyć; na zielone strzałki, aby przejść do map sąsiednich.


METAR-TAF: